Time;durP1;ratioP1;P1;durP2;ratioP2;P2;SDS_P1;SDS_P2;PMS_P1;PMS_P2;Temp;Humidity;BMP_temperature;BMP_pressure;BME280_temperature;BME280_humidity;BME280_pressure;Samples;Min_cycle;Max_cycle;Signal;HPM_P1;HPM_P2
2021/12/09 00:01:24;;;;;;;13.25;8.85;;;0.00;99.90;;;;;;5071152;28;20196;-75
2021/12/09 00:03:57;;;;;;;13.70;8.35;;;-0.10;99.90;;;;;;5070814;28;20184;-76
2021/12/09 00:06:27;;;;;;;16.42;9.30;;;-0.10;99.90;;;;;;5071019;28;20156;-76
2021/12/09 00:08:55;;;;;;;15.23;9.82;;;0.00;99.90;;;;;;5070849;28;20153;-75
2021/12/09 00:11:22;;;;;;;14.60;9.90;;;-0.10;99.90;;;;;;5069762;28;20236;-76
2021/12/09 00:13:49;;;;;;;15.68;10.27;;;-0.10;99.90;;;;;;5067482;28;20202;-75
2021/12/09 00:16:15;;;;;;;16.17;8.88;;;-0.10;99.90;;;;;;5070642;28;20203;-75
2021/12/09 00:18:43;;;;;;;18.95;11.20;;;-0.10;99.90;;;;;;5070830;28;20165;-75
2021/12/09 00:21:10;;;;;;;15.35;11.10;;;-0.10;99.90;;;;;;5070508;28;20219;-75
2021/12/09 00:23:36;;;;;;;19.85;10.55;;;-0.10;99.90;;;;;;5070687;28;20156;-75
2021/12/09 00:26:03;;;;;;;15.20;10.68;;;-0.10;99.90;;;;;;5069317;28;20228;-75
2021/12/09 00:28:29;;;;;;;14.23;10.60;;;-0.20;99.90;;;;;;5070605;28;20164;-74
2021/12/09 00:30:56;;;;;;;16.45;10.32;;;-0.20;99.90;;;;;;5069165;28;20200;-75
2021/12/09 00:33:21;;;;;;;18.17;10.50;;;-0.20;99.90;;;;;;5070545;28;20169;-75
2021/12/09 00:35:55;;;;;;;16.95;9.40;;;-0.20;99.90;;;;;;5070383;28;20172;-76
2021/12/09 00:38:33;;;;;;;15.57;10.43;;;-0.20;99.90;;;;;;5069272;28;20176;-75
2021/12/09 00:41:03;;;;;;;19.63;12.00;;;-0.10;99.90;;;;;;5068924;28;20230;-74
2021/12/09 00:43:29;;;;;;;18.92;9.70;;;-0.10;99.90;;;;;;5068991;28;20165;-75
2021/12/09 00:45:57;;;;;;;19.52;11.13;;;-0.10;99.90;;;;;;5070423;28;20172;-75
2021/12/09 00:48:27;;;;;;;18.83;10.77;;;-0.10;99.90;;;;;;5068966;28;20254;-76
2021/12/09 00:50:55;;;;;;;16.77;10.23;;;-0.20;99.90;;;;;;5068794;28;20211;-75
2021/12/09 00:53:22;;;;;;;22.33;11.13;;;-0.20;99.90;;;;;;5070141;28;20165;-76
2021/12/09 00:55:48;;;;;;;27.05;12.52;;;-0.20;99.90;;;;;;5068611;28;20181;-75
2021/12/09 00:58:15;;;;;;;22.05;11.18;;;-0.20;99.90;;;;;;5068605;28;20224;-75
2021/12/09 01:00:41;;;;;;;16.13;10.95;;;-0.20;99.90;;;;;;5069839;28;20235;-75
2021/12/09 01:03:07;;;;;;;21.33;14.85;;;-0.30;99.90;;;;;;5069998;28;20152;-75
2021/12/09 01:05:35;;;;;;;18.73;13.00;;;-0.30;99.90;;;;;;5068656;28;20231;-75
2021/12/09 01:08:02;;;;;;;26.02;12.93;;;-0.30;99.90;;;;;;5069919;28;20187;-75
2021/12/09 01:10:28;;;;;;;21.33;12.65;;;-0.20;99.90;;;;;;5069741;28;20275;-75
2021/12/09 01:12:55;;;;;;;19.73;11.00;;;-0.20;99.90;;;;;;5069875;28;20156;-75
2021/12/09 01:15:21;;;;;;;18.45;10.95;;;-0.20;99.90;;;;;;5069244;28;20152;-75
2021/12/09 01:17:48;;;;;;;17.75;9.98;;;-0.10;99.90;;;;;;5068897;28;20161;-75
2021/12/09 01:20:17;;;;;;;18.08;11.82;;;-0.10;99.90;;;;;;5069476;28;20191;-75
2021/12/09 01:22:45;;;;;;;16.15;10.60;;;-0.10;99.90;;;;;;5068246;28;20160;-75
2021/12/09 01:25:16;;;;;;;16.40;10.85;;;-0.20;99.90;;;;;;5069571;28;20235;-75
2021/12/09 01:27:46;;;;;;;15.73;10.43;;;-0.20;99.90;;;;;;5068236;28;20161;-75
2021/12/09 01:30:17;;;;;;;22.27;13.10;;;-0.20;99.90;;;;;;5069429;28;20160;-75
2021/12/09 01:32:50;;;;;;;18.35;11.75;;;-0.30;99.90;;;;;;5068262;28;20176;-75
2021/12/09 01:35:19;;;;;;;28.25;12.35;;;-0.30;99.90;;;;;;5068153;28;20168;-75
2021/12/09 01:37:46;;;;;;;26.40;11.88;;;-0.20;99.90;;;;;;5069309;28;20165;-75
2021/12/09 01:40:15;;;;;;;15.80;10.75;;;-0.20;99.90;;;;;;5069239;28;20232;-75
2021/12/09 01:42:42;;;;;;;26.45;12.75;;;-0.20;99.90;;;;;;5069460;28;20153;-75
2021/12/09 01:45:08;;;;;;;18.38;10.68;;;-0.20;99.90;;;;;;5069323;28;20176;-76
2021/12/09 01:47:34;;;;;;;20.80;12.02;;;-0.20;99.90;;;;;;5069273;28;20153;-76
2021/12/09 01:50:00;;;;;;;24.35;12.57;;;-0.20;99.90;;;;;;5069217;28;20160;-75
2021/12/09 01:52:26;;;;;;;21.92;11.63;;;-0.20;99.90;;;;;;5069345;28;20223;-75
2021/12/09 01:54:52;;;;;;;23.90;12.32;;;-0.20;99.90;;;;;;5069292;28;20190;-74
2021/12/09 01:57:19;;;;;;;19.50;12.27;;;-0.30;99.90;;;;;;5061765;28;20304;-76
2021/12/09 01:59:47;;;;;;;17.63;11.13;;;-0.30;99.90;;;;;;5031305;28;20193;-76
2021/12/09 02:02:13;;;;;;;19.92;10.57;;;-0.30;99.90;;;;;;5048987;28;20215;-77
2021/12/09 02:04:39;;;;;;;22.88;12.10;;;-0.30;99.90;;;;;;5031321;28;20176;-77
2021/12/09 02:07:06;;;;;;;17.15;10.02;;;-0.20;99.90;;;;;;5049048;28;20165;-77
2021/12/09 02:09:35;;;;;;;17.63;11.48;;;-0.20;99.90;;;;;;5031160;28;20187;-78
2021/12/09 02:12:01;;;;;;;24.70;11.88;;;-0.20;99.90;;;;;;5046824;28;20189;-77
2021/12/09 02:14:27;;;;;;;24.23;12.88;;;-0.10;99.90;;;;;;5029118;28;20173;-78
2021/12/09 02:16:53;;;;;;;19.67;12.35;;;-0.10;99.90;;;;;;5011436;28;20162;-78
2021/12/09 02:19:19;;;;;;;22.15;10.15;;;-0.10;99.90;;;;;;5010773;28;20233;-78
2021/12/09 02:21:45;;;;;;;28.15;12.38;;;-0.10;99.90;;;;;;5011225;28;20249;-77
2021/12/09 02:24:14;;;;;;;19.67;10.55;;;-0.10;99.90;;;;;;5029075;28;20166;-77
2021/12/09 02:26:44;;;;;;;18.23;10.77;;;-0.10;99.90;;;;;;5011317;28;20166;-77
2021/12/09 02:29:14;;;;;;;19.55;9.48;;;0.00;99.90;;;;;;5012077;28;20170;-76
2021/12/09 02:31:42;;;;;;;17.17;9.95;;;0.00;99.90;;;;;;5032813;28;20217;-76
2021/12/09 02:34:09;;;;;;;14.05;8.88;;;0.00;99.90;;;;;;5032940;28;20264;-76
2021/12/09 02:36:39;;;;;;;16.80;10.23;;;0.10;99.90;;;;;;5032784;28;20158;-77
2021/12/09 02:39:08;;;;;;;14.60;9.38;;;0.10;99.90;;;;;;5032796;28;20241;-77
2021/12/09 02:41:36;;;;;;;13.70;9.38;;;0.10;99.90;;;;;;5032629;28;20233;-78
2021/12/09 02:44:06;;;;;;;17.63;9.32;;;0.10;99.90;;;;;;5015201;28;20190;-78
2021/12/09 02:46:36;;;;;;;18.92;9.95;;;0.10;99.90;;;;;;5032795;28;20213;-79
2021/12/09 02:49:10;;;;;;;16.42;9.57;;;0.10;99.90;;;;;;5032655;28;20181;-79
2021/12/09 02:51:36;;;;;;;14.52;9.88;;;0.10;99.90;;;;;;5014988;28;20194;-78
2021/12/09 02:54:04;;;;;;;16.20;10.02;;;0.10;99.90;;;;;;5014736;28;20173;-78
2021/12/09 02:56:31;;;;;;;13.68;8.38;;;0.10;99.90;;;;;;5014700;28;20170;-78
2021/12/09 02:58:57;;;;;;;17.33;9.18;;;0.10;99.90;;;;;;5032486;28;20166;-77
2021/12/09 03:01:28;;;;;;;15.85;9.38;;;0.20;99.90;;;;;;5032241;28;20241;-77
2021/12/09 03:03:59;;;;;;;14.77;9.02;;;0.10;99.90;;;;;;5032417;28;20225;-77
2021/12/09 03:06:33;;;;;;;15.73;8.68;;;0.10;99.90;;;;;;5014776;28;20190;-78
2021/12/09 03:09:05;;;;;;;17.02;9.75;;;0.10;99.90;;;;;;5032424;28;20157;-76
2021/12/09 03:11:32;;;;;;;19.30;9.25;;;0.10;99.90;;;;;;5014504;28;20209;-78
2021/12/09 03:14:01;;;;;;;17.33;10.20;;;0.10;99.90;;;;;;5032209;28;20226;-78
2021/12/09 03:16:29;;;;;;;16.63;10.93;;;0.10;99.90;;;;;;5032101;28;20166;-79
2021/12/09 03:18:59;;;;;;;17.60;10.70;;;0.10;99.90;;;;;;5032212;28;20267;-80
2021/12/09 03:21:30;;;;;;;21.38;10.80;;;0.10;99.90;;;;;;5031935;28;20284;-75
2021/12/09 03:23:57;;;;;;;21.30;10.43;;;0.10;99.90;;;;;;5031953;28;20161;-80
2021/12/09 03:26:29;;;;;;;22.08;10.95;;;0.10;99.90;;;;;;5014450;28;20193;-80
2021/12/09 03:29:03;;;;;;;19.80;9.35;;;0.10;99.90;;;;;;5031794;28;20162;-78
2021/12/09 03:31:29;;;;;;;18.63;10.13;;;0.00;99.90;;;;;;5031734;28;20204;-78
2021/12/09 03:33:57;;;;;;;16.60;10.65;;;0.10;99.90;;;;;;5013964;28;20178;-78
2021/12/09 03:36:27;;;;;;;15.68;9.05;;;0.10;99.90;;;;;;5031947;28;20158;-78
2021/12/09 03:38:59;;;;;;;16.75;9.13;;;0.10;99.90;;;;;;5032096;28;20162;-79
2021/12/09 03:41:26;;;;;;;13.70;8.10;;;0.10;99.90;;;;;;5031960;28;20205;-79
2021/12/09 03:43:51;;;;;;;16.15;9.65;;;0.10;99.90;;;;;;5031718;28;20249;-79
2021/12/09 03:46:18;;;;;;;12.40;8.63;;;0.10;99.90;;;;;;5014091;28;20189;-79
2021/12/09 03:48:44;;;;;;;14.40;8.45;;;0.10;99.90;;;;;;5013901;28;20246;-78
2021/12/09 03:51:11;;;;;;;17.38;10.07;;;0.10;99.90;;;;;;5013677;28;20208;-78
2021/12/09 03:53:37;;;;;;;13.35;9.40;;;0.10;99.90;;;;;;5013766;28;20180;-78
2021/12/09 03:56:03;;;;;;;16.30;8.60;;;0.10;99.90;;;;;;5013537;28;20177;-78
2021/12/09 03:58:29;;;;;;;15.00;9.07;;;0.10;99.90;;;;;;5031208;28;20220;-77
2021/12/09 04:00:56;;;;;;;18.38;8.52;;;0.10;99.90;;;;;;5031057;28;20253;-78
2021/12/09 04:03:22;;;;;;;14.93;9.60;;;0.20;99.90;;;;;;5016367;28;20188;-78
2021/12/09 04:05:48;;;;;;;68.35;32.42;;;0.20;99.90;;;;;;5050903;28;20179;-77
2021/12/09 04:08:15;;;;;;;14.80;8.40;;;0.20;99.90;;;;;;5050877;28;20158;-79
2021/12/09 04:10:42;;;;;;;16.38;10.13;;;0.20;99.90;;;;;;5050805;28;20169;-79
2021/12/09 04:13:08;;;;;;;16.30;8.80;;;0.20;99.90;;;;;;5050769;28;20200;-77
2021/12/09 04:15:35;;;;;;;14.00;9.07;;;0.20;99.90;;;;;;5045560;28;20185;-77
2021/12/09 04:18:01;;;;;;;16.80;8.38;;;0.30;99.90;;;;;;5032344;28;20220;-78
2021/12/09 04:20:27;;;;;;;11.15;7.43;;;0.20;99.90;;;;;;5048894;28;20226;-78
2021/12/09 04:22:53;;;;;;;17.20;9.23;;;0.20;99.90;;;;;;5049014;28;20298;-79
2021/12/09 04:25:22;;;;;;;16.30;8.32;;;0.20;99.90;;;;;;5032160;28;20165;-79
2021/12/09 04:27:50;;;;;;;15.95;9.57;;;0.20;99.90;;;;;;5032794;28;20169;-80
2021/12/09 04:30:17;;;;;;;16.42;8.88;;;0.20;99.90;;;;;;5050548;28;20195;-79
2021/12/09 04:32:44;;;;;;;13.98;8.65;;;0.20;99.90;;;;;;5032665;28;20168;-78
2021/12/09 04:35:12;;;;;;;13.15;8.23;;;0.20;99.90;;;;;;5050004;28;20212;-77
2021/12/09 04:37:39;;;;;;;17.25;9.85;;;0.10;99.90;;;;;;5032352;28;20169;-78
2021/12/09 04:40:10;;;;;;;16.85;9.38;;;0.10;99.90;;;;;;5050145;28;20193;-77
2021/12/09 04:42:37;;;;;;;12.95;7.93;;;0.10;99.90;;;;;;5050229;28;20157;-79
2021/12/09 04:45:05;;;;;;;14.88;7.97;;;0.10;99.90;;;;;;5050168;28;20193;-78
2021/12/09 04:47:30;;;;;;;14.10;8.52;;;0.10;99.90;;;;;;5044822;28;20192;-79
2021/12/09 04:49:56;;;;;;;16.15;8.38;;;0.20;99.90;;;;;;5050112;28;20197;-78
2021/12/09 04:52:22;;;;;;;16.08;7.80;;;0.10;99.90;;;;;;5031199;28;20184;-78
2021/12/09 04:54:48;;;;;;;14.90;7.53;;;0.10;99.90;;;;;;5031881;28;20193;-79
2021/12/09 04:57:15;;;;;;;15.93;8.93;;;0.20;99.90;;;;;;5041170;28;20223;-79
2021/12/09 04:59:41;;;;;;;12.00;7.67;;;0.20;99.90;;;;;;5068508;28;20177;-80
2021/12/09 05:02:21;;;;;;;17.15;8.50;;;0.20;99.90;;;;;;5061109;28;20428;-80
2021/12/09 05:04:47;;;;;;;14.52;8.65;;;0.20;99.90;;;;;;5049556;28;20196;-80
2021/12/09 05:07:13;;;;;;;14.40;8.32;;;0.20;99.90;;;;;;5049751;28;20158;-80
2021/12/09 05:09:49;;;;;;;22.88;10.32;;;0.20;99.90;;;;;;5049918;28;20229;-79
2021/12/09 05:12:16;;;;;;;21.05;12.30;;;0.20;99.90;;;;;;5048475;28;20199;-80
2021/12/09 05:14:46;;;;;;;20.00;12.07;;;0.20;99.90;;;;;;5049488;28;20212;-79
2021/12/09 05:17:12;;;;;;;16.27;9.00;;;0.20;99.90;;;;;;5055977;28;20204;-79
2021/12/09 05:19:38;;;;;;;15.20;9.45;;;0.20;99.90;;;;;;5069553;28;20322;-80
2021/12/09 05:22:04;;;;;;;15.90;9.65;;;0.20;99.90;;;;;;5068391;28;20192;-80
2021/12/09 05:24:34;;;;;;;16.25;9.57;;;0.10;99.90;;;;;;5067893;28;20673;-79
2021/12/09 05:27:01;;;;;;;14.00;8.43;;;0.10;99.90;;;;;;5069372;28;20224;-80
2021/12/09 05:29:32;;;;;;;22.35;9.23;;;0.10;99.90;;;;;;5069515;28;20212;-80
2021/12/09 05:32:08;;;;;;;12.98;7.82;;;0.10;99.90;;;;;;5069632;28;20180;-80
2021/12/09 05:34:37;;;;;;;14.93;7.72;;;0.10;99.90;;;;;;5068420;28;20224;-80
2021/12/09 05:37:06;;;;;;;16.38;8.52;;;0.10;99.90;;;;;;5068121;28;20204;-78
2021/12/09 05:39:32;;;;;;;14.52;8.48;;;0.10;99.90;;;;;;5068055;28;20247;-78
2021/12/09 05:41:59;;;;;;;15.75;8.88;;;0.10;99.90;;;;;;5069029;28;20197;-77
2021/12/09 05:44:26;;;;;;;20.83;8.10;;;0.10;99.90;;;;;;5067917;28;20539;-79
2021/12/09 05:46:52;;;;;;;14.68;8.60;;;0.00;99.90;;;;;;5069073;28;20153;-79
2021/12/09 05:49:19;;;;;;;18.75;9.60;;;0.00;99.90;;;;;;5064048;28;20177;-81
2021/12/09 05:51:45;;;;;;;19.90;9.88;;;0.00;99.90;;;;;;5067003;28;20191;-80
2021/12/09 05:54:12;;;;;;;16.90;9.68;;;0.00;99.90;;;;;;5066797;28;20207;-81
2021/12/09 05:56:39;;;;;;;17.60;8.07;;;0.00;99.90;;;;;;5067063;28;20174;-81
2021/12/09 05:59:07;;;;;;;21.92;10.10;;;0.00;99.90;;;;;;5049046;28;20308;-79
2021/12/09 06:01:34;;;;;;;15.50;9.05;;;0.00;99.90;;;;;;5044856;28;20201;-79
2021/12/09 06:04:00;;;;;;;18.25;8.70;;;0.00;99.90;;;;;;5042716;28;20170;-82
2021/12/09 06:06:26;;;;;;;20.58;8.30;;;0.00;99.90;;;;;;5029307;28;20245;-80
2021/12/09 06:08:52;;;;;;;17.13;8.07;;;-0.10;99.90;;;;;;5026820;28;20241;-82
2021/12/09 06:11:18;;;;;;;12.93;8.52;;;0.00;99.90;;;;;;5030720;28;20173;-82
2021/12/09 06:13:46;;;;;;;15.73;8.30;;;0.10;99.90;;;;;;5036299;28;20273;-81
2021/12/09 06:16:12;;;;;;;14.88;8.00;;;0.10;99.90;;;;;;5053833;28;20223;-80
2021/12/09 06:18:38;;;;;;;16.15;9.05;;;0.10;99.90;;;;;;5055074;28;20162;-83
2021/12/09 06:21:04;;;;;;;13.35;7.60;;;0.10;99.90;;;;;;5037525;28;20232;-79
2021/12/09 06:23:31;;;;;;;13.57;8.82;;;0.10;99.90;;;;;;5037403;28;20195;-82
2021/12/09 06:25:57;;;;;;;13.40;7.85;;;0.10;99.90;;;;;;5055059;28;20176;-83
2021/12/09 06:28:23;;;;;;;15.05;7.78;;;0.10;99.90;;;;;;5055386;28;20168;-83
2021/12/09 06:30:49;;;;;;;13.85;7.38;;;0.10;99.90;;;;;;5054296;28;20639;-80
2021/12/09 06:33:15;;;;;;;11.23;8.43;;;0.10;99.90;;;;;;5036347;28;20197;-81
2021/12/09 06:35:41;;;;;;;16.20;9.50;;;0.20;99.90;;;;;;5033447;28;20181;-78
2021/12/09 06:38:12;;;;;;;17.90;8.23;;;0.20;99.90;;;;;;5054379;28;20157;-80
2021/12/09 06:40:39;;;;;;;11.23;6.88;;;0.20;99.90;;;;;;5054932;28;20358;-81
2021/12/09 06:43:06;;;;;;;12.15;8.05;;;0.20;99.90;;;;;;5036369;28;20261;-79
2021/12/09 06:45:32;;;;;;;14.98;7.68;;;0.20;99.90;;;;;;5054052;28;20165;-80
2021/12/09 06:47:58;;;;;;;14.60;8.45;;;0.40;99.90;;;;;;5053958;28;20177;-81
2021/12/09 06:50:24;;;;;;;19.17;8.50;;;0.40;99.90;;;;;;5049610;28;20185;-83
2021/12/09 06:52:51;;;;;;;15.32;8.52;;;0.40;99.90;;;;;;5054139;28;20197;-79
2021/12/09 06:55:19;;;;;;;13.18;8.70;;;0.40;99.90;;;;;;5036187;28;20173;-83
2021/12/09 06:57:47;;;;;;;16.70;10.00;;;0.40;99.90;;;;;;5052898;28;20220;-82
2021/12/09 07:00:20;;;;;;;18.83;10.77;;;0.40;99.90;;;;;;5073421;28;20207;-82
2021/12/09 07:02:46;;;;;;;22.40;9.80;;;0.40;99.90;;;;;;5074093;28;20188;-83
2021/12/09 07:05:14;;;;;;;14.45;8.63;;;0.40;99.90;;;;;;5074687;28;20224;-83
2021/12/09 07:07:40;;;;;;;18.60;9.30;;;0.50;99.90;;;;;;5074862;28;20196;-82
2021/12/09 07:10:09;;;;;;;17.55;10.10;;;0.50;99.90;;;;;;5073403;28;20176;-82
2021/12/09 07:12:36;;;;;;;16.48;9.82;;;0.40;99.90;;;;;;5074460;28;20196;-77
2021/12/09 07:15:05;;;;;;;17.65;9.60;;;0.40;99.90;;;;;;5072796;28;20161;-79
2021/12/09 07:17:30;;;;;;;14.52;9.20;;;0.50;99.90;;;;;;5071949;28;20161;-78
2021/12/09 07:19:56;;;;;;;15.23;8.07;;;0.50;99.90;;;;;;5071328;28;20227;-79
2021/12/09 07:22:22;;;;;;;17.17;8.90;;;0.50;99.90;;;;;;5071857;28;20157;-79
2021/12/09 07:24:48;;;;;;;15.70;8.48;;;0.50;99.90;;;;;;5071900;28;20149;-79
2021/12/09 07:27:14;;;;;;;18.45;10.15;;;0.50;99.90;;;;;;5071076;28;20160;-78
2021/12/09 07:29:40;;;;;;;14.43;7.85;;;0.60;99.90;;;;;;5071215;28;20197;-81
2021/12/09 07:32:07;;;;;;;12.73;7.68;;;0.60;99.90;;;;;;5071124;28;20252;-78
2021/12/09 07:34:33;;;;;;;17.02;9.40;;;0.60;99.90;;;;;;5069604;28;20165;-77
2021/12/09 07:37:03;;;;;;;14.70;8.38;;;0.50;99.90;;;;;;5069852;28;20169;-79
2021/12/09 07:39:31;;;;;;;14.95;9.05;;;0.50;99.90;;;;;;5062305;28;20203;-81
2021/12/09 07:41:59;;;;;;;15.43;9.07;;;0.50;99.90;;;;;;5058969;28;20199;-79
2021/12/09 07:44:30;;;;;;;15.82;8.50;;;0.50;99.90;;;;;;5061861;28;20168;-76
2021/12/09 07:46:58;;;;;;;16.25;9.13;;;0.50;99.90;;;;;;5056285;28;20228;-79
2021/12/09 07:49:25;;;;;;;16.55;8.82;;;0.50;99.90;;;;;;5059922;28;20224;-80
2021/12/09 07:51:52;;;;;;;17.63;9.07;;;0.50;99.90;;;;;;5056121;28;20232;-81
2021/12/09 07:54:18;;;;;;;18.58;8.77;;;0.50;99.90;;;;;;5059840;28;20174;-79
2021/12/09 07:56:45;;;;;;;16.67;9.38;;;0.50;99.90;;;;;;5058698;28;20543;-75
2021/12/09 07:59:12;;;;;;;13.98;8.38;;;0.50;99.90;;;;;;5021821;28;20193;-79
2021/12/09 08:01:39;;;;;;;18.95;9.50;;;0.50;99.90;;;;;;5042528;28;20189;-80
2021/12/09 08:04:10;;;;;;;18.27;9.63;;;0.50;99.90;;;;;;5040807;28;20170;-78
2021/12/09 08:06:37;;;;;;;18.70;9.82;;;0.50;99.90;;;;;;5020353;28;20204;-79
2021/12/09 08:09:05;;;;;;;16.17;9.80;;;0.50;99.90;;;;;;5027475;28;20197;-77
2021/12/09 08:11:36;;;;;;;17.80;10.23;;;0.50;99.90;;;;;;5037002;28;20189;-76
2021/12/09 08:14:07;;;;;;;15.70;8.77;;;0.60;99.90;;;;;;5040933;28;20154;-77
2021/12/09 08:16:37;;;;;;;16.83;10.25;;;0.60;99.90;;;;;;5044107;28;20170;-77
2021/12/09 08:19:11;;;;;;;16.60;9.18;;;0.60;99.90;;;;;;5015428;28;20201;-78
2021/12/09 08:21:38;;;;;;;21.15;10.40;;;0.60;99.90;;;;;;5024509;28;20204;-78
2021/12/09 08:24:05;;;;;;;17.52;9.48;;;0.70;99.90;;;;;;5032466;28;20165;-78
2021/12/09 08:26:32;;;;;;;23.25;10.38;;;0.80;99.90;;;;;;5049670;28;20150;-81
2021/12/09 08:28:57;;;;;;;14.07;9.35;;;0.70;99.90;;;;;;5050212;28;20242;-75
2021/12/09 08:31:24;;;;;;;25.23;9.52;;;0.80;99.90;;;;;;5049850;28;20181;-76
2021/12/09 08:33:50;;;;;;;14.77;9.00;;;0.70;99.90;;;;;;5050268;28;20225;-79
2021/12/09 08:36:16;;;;;;;21.33;10.40;;;0.70;99.90;;;;;;5041204;28;20178;-80
2021/12/09 08:38:42;;;;;;;20.65;10.23;;;0.60;99.90;;;;;;5031041;28;20209;-80
2021/12/09 08:41:08;;;;;;;18.75;11.80;;;0.60;99.90;;;;;;5037864;28;20208;-81
2021/12/09 08:43:35;;;;;;;17.67;11.18;;;0.60;99.90;;;;;;5050156;28;20622;-79
2021/12/09 08:46:01;;;;;;;22.67;10.15;;;0.60;99.90;;;;;;5050007;28;20219;-78
2021/12/09 08:48:27;;;;;;;19.23;11.32;;;0.60;99.90;;;;;;5032033;28;20173;-78
2021/12/09 08:50:53;;;;;;;17.38;9.75;;;0.60;99.90;;;;;;5032160;28;20185;-78
2021/12/09 08:53:23;;;;;;;21.67;10.75;;;0.60;99.90;;;;;;5049809;28;20166;-79
2021/12/09 08:55:50;;;;;;;21.42;10.27;;;0.70;99.90;;;;;;5032069;28;20260;-78
2021/12/09 08:58:16;;;;;;;26.23;11.02;;;0.70;99.90;;;;;;5058041;28;20228;-80
2021/12/09 09:00:44;;;;;;;21.15;10.35;;;0.70;99.90;;;;;;5069584;28;20184;-77
2021/12/09 09:03:10;;;;;;;16.63;9.68;;;0.70;99.90;;;;;;5068514;28;20172;-76
2021/12/09 09:05:37;;;;;;;20.35;9.75;;;0.70;99.90;;;;;;5069572;28;20172;-77
2021/12/09 09:08:05;;;;;;;16.17;9.68;;;0.80;99.90;;;;;;5069752;28;20488;-78
2021/12/09 09:10:34;;;;;;;15.32;10.20;;;0.90;99.90;;;;;;5069479;28;20192;-76
2021/12/09 09:13:00;;;;;;;14.95;9.05;;;0.90;99.90;;;;;;5068600;28;20172;-80
2021/12/09 09:15:28;;;;;;;13.70;9.15;;;0.90;99.90;;;;;;5069756;28;20165;-78
2021/12/09 09:17:55;;;;;;;17.70;9.52;;;0.90;99.90;;;;;;5066010;28;20308;-76
2021/12/09 09:20:23;;;;;;;19.85;10.98;;;0.90;99.90;;;;;;5060316;28;20200;-76
2021/12/09 09:22:49;;;;;;;21.30;10.70;;;0.90;99.90;;;;;;5061659;28;20173;-76
2021/12/09 09:25:19;;;;;;;18.60;9.50;;;0.90;99.90;;;;;;5048026;28;20161;-77
2021/12/09 09:27:46;;;;;;;17.38;10.45;;;0.90;99.90;;;;;;5061264;28;20169;-78
2021/12/09 09:30:17;;;;;;;22.02;9.80;;;0.90;99.90;;;;;;5067945;28;20195;-77
2021/12/09 09:32:50;;;;;;;17.90;9.95;;;0.90;99.90;;;;;;5068042;28;20203;-77
2021/12/09 09:35:17;;;;;;;20.77;10.68;;;1.00;99.90;;;;;;5063838;28;20173;-78
2021/12/09 09:37:45;;;;;;;17.80;10.38;;;1.00;99.90;;;;;;5047217;28;20236;-77
2021/12/09 09:40:14;;;;;;;16.42;9.23;;;1.10;99.90;;;;;;5048796;28;20217;-80
2021/12/09 09:45:13;;;;;;;16.23;9.85;;;1.00;99.90;;;;;;5051720;28;20237;-76
2021/12/09 09:47:40;;;;;;;16.83;11.55;;;0.90;99.90;;;;;;5048276;28;20176;-77
2021/12/09 09:50:09;;;;;;;18.27;10.88;;;0.90;99.90;;;;;;5053541;28;20165;-77
2021/12/09 09:52:35;;;;;;;16.83;8.80;;;1.00;99.90;;;;;;5067065;28;20168;-76
2021/12/09 09:55:05;;;;;;;14.57;8.70;;;1.00;99.90;;;;;;5067211;28;20528;-77
2021/12/09 09:57:31;;;;;;;12.23;7.78;;;1.10;99.90;;;;;;5066352;28;20250;-75
2021/12/09 09:59:57;;;;;;;11.80;7.88;;;1.00;99.90;;;;;;5068462;28;20216;-75
2021/12/09 10:02:23;;;;;;;16.58;9.27;;;1.00;99.90;;;;;;5068353;28;20160;-76
2021/12/09 10:04:59;;;;;;;15.70;8.55;;;1.10;99.90;;;;;;5068366;28;20171;-75
2021/12/09 10:07:25;;;;;;;12.02;8.23;;;1.10;99.90;;;;;;5068417;28;20149;-74
2021/12/09 10:09:53;;;;;;;16.42;10.40;;;1.10;99.90;;;;;;5066924;28;20216;-75
2021/12/09 10:12:20;;;;;;;16.88;9.15;;;1.10;99.90;;;;;;5066984;28;20169;-77
2021/12/09 10:14:49;;;;;;;20.10;10.48;;;1.00;99.90;;;;;;5068400;28;20153;-74
2021/12/09 10:17:19;;;;;;;16.63;9.05;;;1.00;99.90;;;;;;5068306;28;20159;-75
2021/12/09 10:19:58;;;;;;;16.70;8.48;;;1.00;99.90;;;;;;5066790;28;20192;-76
2021/12/09 10:22:33;;;;;;;15.85;8.90;;;1.10;99.90;;;;;;5054445;28;20258;-75
2021/12/09 10:25:00;;;;;;;15.18;8.77;;;1.20;99.90;;;;;;5061128;28;20184;-75
2021/12/09 10:27:31;;;;;;;19.00;9.52;;;1.20;99.90;;;;;;5058730;28;20226;-74
2021/12/09 10:30:11;;;;;;;19.13;10.73;;;1.20;99.90;;;;;;5086811;28;20188;-74
2021/12/09 10:32:39;;;;;;;17.40;11.10;;;1.20;99.90;;;;;;5088244;28;20163;-75
2021/12/09 10:35:09;;;;;;;22.17;9.88;;;1.20;99.90;;;;;;5088305;28;20155;-74
2021/12/09 10:37:37;;;;;;;14.88;8.93;;;1.20;99.90;;;;;;5088283;28;20168;-74
2021/12/09 10:40:11;;;;;;;18.30;9.85;;;1.20;99.90;;;;;;5074997;28;20272;-72
2021/12/09 10:42:43;;;;;;;23.08;9.15;;;1.30;99.90;;;;;;5048236;28;20229;-75
2021/12/09 10:45:24;;;;;;;17.08;10.40;;;1.30;99.90;;;;;;5047098;28;20192;-73
2021/12/09 10:50:42;;;;;;;12.10;8.98;;;1.20;99.90;;;;;;5049433;28;20154;-75
2021/12/09 10:56:01;;;;;;;16.13;8.88;;;1.10;99.90;;;;;;5063975;28;20192;-74
2021/12/09 10:58:34;;;;;;;15.98;8.43;;;1.10;99.90;;;;;;5042718;28;20233;-75
2021/12/09 11:01:30;;;;;;;17.88;8.57;;;1.20;99.90;;;;;;5013732;28;20212;-75
2021/12/09 11:04:00;;;;;;;14.23;9.10;;;1.30;99.90;;;;;;4973525;28;20190;-75
2021/12/09 11:06:42;;;;;;;14.20;9.27;;;1.40;99.90;;;;;;4990347;28;20189;-75
2021/12/09 11:09:11;;;;;;;13.80;9.30;;;1.40;99.90;;;;;;4989548;28;20194;-75
2021/12/09 11:11:42;;;;;;;14.82;9.60;;;1.50;99.90;;;;;;4974295;28;20192;-74
2021/12/09 11:14:13;;;;;;;18.38;10.25;;;1.60;99.90;;;;;;4971354;28;20196;-75
2021/12/09 11:16:42;;;;;;;21.27;11.88;;;1.60;99.90;;;;;;4969911;28;20192;-75
2021/12/09 11:19:18;;;;;;;14.45;9.98;;;1.50;99.90;;;;;;4971497;29;20234;-74
2021/12/09 11:21:55;;;;;;;17.92;9.77;;;1.60;99.90;;;;;;4973574;28;20227;-74
2021/12/09 11:24:23;;;;;;;16.30;9.25;;;1.60;99.90;;;;;;4970992;29;20176;-74
2021/12/09 11:26:57;;;;;;;16.38;9.98;;;1.50;99.90;;;;;;4985931;28;20189;-73
2021/12/09 11:29:36;;;;;;;20.88;11.02;;;1.60;99.90;;;;;;5010004;28;20154;-74
2021/12/09 11:32:36;;;;;;;22.45;11.38;;;1.60;99.90;;;;;;5009539;28;20194;-74
2021/12/09 11:35:27;;;;;;;16.48;10.07;;;1.60;99.90;;;;;;5009709;28;20162;-73
2021/12/09 11:38:04;;;;;;;16.00;9.15;;;1.50;99.90;;;;;;5009774;28;20233;-74
2021/12/09 11:40:38;;;;;;;20.23;11.05;;;1.50;99.90;;;;;;5022337;28;20215;-73
2021/12/09 11:43:07;;;;;;;16.60;10.18;;;1.60;99.90;;;;;;5013854;28;20210;-74
2021/12/09 11:45:42;;;;;;;19.10;10.02;;;1.50;99.90;;;;;;5031447;28;20208;-75
2021/12/09 11:48:11;;;;;;;13.70;9.75;;;1.50;99.90;;;;;;5031242;28;20174;-74
2021/12/09 11:50:40;;;;;;;20.00;10.75;;;1.60;99.90;;;;;;5029793;28;20206;-74
2021/12/09 11:53:09;;;;;;;19.63;11.27;;;1.70;99.90;;;;;;5029571;28;20166;-74
2021/12/09 11:55:40;;;;;;;19.20;11.18;;;1.70;99.90;;;;;;5031062;28;20158;-74
2021/12/09 11:58:20;;;;;;;21.38;11.10;;;1.50;99.90;;;;;;5037896;28;20232;-75
2021/12/09 12:32:25;;;;;;;14.10;8.85;;;1.60;99.90;;;;;;5062346;28;20188;-73
2021/12/09 12:35:09;;;;;;;14.43;8.57;;;1.60;99.90;;;;;;5060098;28;20187;-73
2021/12/09 12:37:57;;;;;;;17.17;8.70;;;1.60;99.90;;;;;;5059169;28;20228;-73
2021/12/09 12:40:31;;;;;;;20.15;9.95;;;1.60;99.90;;;;;;5056719;28;20311;-71
2021/12/09 12:43:18;;;;;;;15.70;8.43;;;1.60;99.90;;;;;;5058864;28;20603;-73
2021/12/09 12:51:32;;;;;;;16.17;9.52;;;1.50;99.90;;;;;;5029518;28;20199;-72
2021/12/09 12:54:08;;;;;;;16.77;9.90;;;1.50;99.90;;;;;;5058213;28;20199;-73
2021/12/09 12:56:53;;;;;;;17.40;10.75;;;1.50;99.90;;;;;;5057041;28;20169;-72
2021/12/09 12:59:30;;;;;;;15.93;9.48;;;1.50;99.90;;;;;;5022507;28;20216;-73
2021/12/09 13:10:43;;;;;;;19.70;9.23;;;1.40;99.90;;;;;;5038808;28;20686;-75
2021/12/09 13:13:27;;;;;;;17.08;10.00;;;1.40;99.90;;;;;;5021576;28;20177;-75
2021/12/09 13:21:43;;;;;;;16.95;9.43;;;1.40;99.90;;;;;;5040955;28;20208;-74
2021/12/09 13:24:25;;;;;;;17.58;9.68;;;1.50;99.90;;;;;;5022047;28;20177;-72
2021/12/09 13:30:17;;;;;;;16.50;10.18;;;1.50;99.90;;;;;;5039592;28;20197;-72
2021/12/09 13:49:49;;;;;;;17.33;10.48;;;1.30;99.90;;;;;;5039106;28;20193;-74
2021/12/09 13:55:11;;;;;;;18.33;10.07;;;1.30;99.90;;;;;;5039141;28;20583;-76
2021/12/09 13:57:43;;;;;;;21.70;12.20;;;1.30;99.90;;;;;;5042449;28;20233;-75
2021/12/09 14:00:27;;;;;;;21.80;12.38;;;1.30;99.90;;;;;;5058438;28;20180;-76
2021/12/09 14:02:55;;;;;;;18.52;10.73;;;1.30;99.90;;;;;;5057655;28;20657;-79
2021/12/09 14:05:22;;;;;;;19.73;12.23;;;1.30;99.90;;;;;;5058696;28;20200;-75
2021/12/09 14:07:58;;;;;;;18.42;11.32;;;1.20;99.90;;;;;;5058329;28;20172;-76
2021/12/09 14:10:29;;;;;;;16.55;9.45;;;1.20;99.90;;;;;;5055545;28;20176;-76
2021/12/09 14:13:09;;;;;;;18.88;11.10;;;1.20;99.90;;;;;;5057105;28;20180;-79